Time;durP1;ratioP1;P1;durP2;ratioP2;P2;SDS_P1;SDS_P2;PMS_P1;PMS_P2;Temp;Humidity;BMP_temperature;BMP_pressure;BME280_temperature;BME280_humidity;BME280_pressure;Samples;Min_cycle;Max_cycle;Signal;HPM_P1;HPM_P2
2022/03/19 00:02:27;;;;;;;16.67;10.73;;;5.70;1.00;;;;;;5098662;28;20525;-59
2022/03/19 00:04:54;;;;;;;16.83;12.00;;;5.60;1.00;;;;;;5079907;28;20461;-56
2022/03/19 00:07:22;;;;;;;13.97;10.90;;;5.60;1.00;;;;;;5078806;28;20493;-57
2022/03/19 00:09:53;;;;;;;16.63;11.37;;;5.50;1.00;;;;;;5079246;28;20960;-56
2022/03/19 00:12:25;;;;;;;14.73;11.00;;;5.60;35.40;;;;;;5080628;28;20461;-59
2022/03/19 00:14:52;;;;;;;18.60;11.67;;;5.60;27.60;;;;;;5098093;28;20897;-59
2022/03/19 00:17:19;;;;;;;19.30;11.63;;;5.60;3.10;;;;;;5099044;28;20989;-57
2022/03/19 00:19:46;;;;;;;17.50;12.60;;;5.50;5.00;;;;;;5096997;28;20472;-59
2022/03/19 00:22:13;;;;;;;19.77;11.43;;;5.40;42.80;;;;;;5099195;28;20759;-59
2022/03/19 00:24:40;;;;;;;17.03;11.97;;;5.40;73.60;;;;;;5094981;28;20801;-59
2022/03/19 00:27:07;;;;;;;16.53;12.00;;;5.40;86.40;;;;;;5081466;28;20465;-59
2022/03/19 00:29:36;;;;;;;17.30;12.90;;;5.30;90.30;;;;;;5093248;28;20467;-59
2022/03/19 00:32:03;;;;;;;15.77;11.47;;;5.30;90.00;;;;;;5103194;28;20789;-59
2022/03/19 00:34:31;;;;;;;14.93;11.33;;;5.30;93.90;;;;;;5085894;28;20465;-58
2022/03/19 00:37:05;;;;;;;18.27;11.70;;;5.30;96.20;;;;;;5085666;28;20452;-59
2022/03/19 00:39:35;;;;;;;13.03;10.90;;;5.20;87.70;;;;;;5101957;28;20468;-59
2022/03/19 00:42:02;;;;;;;14.43;11.63;;;5.20;93.50;;;;;;5102903;28;20861;-59
2022/03/19 00:44:30;;;;;;;13.40;11.10;;;5.20;98.10;;;;;;5102563;28;20492;-57
2022/03/19 00:47:07;;;;;;;13.17;11.70;;;5.10;99.90;;;;;;5102716;28;20468;-53
2022/03/19 00:49:37;;;;;;;14.40;10.33;;;5.10;99.90;;;;;;5098382;28;20465;-58
2022/03/19 00:52:05;;;;;;;18.90;11.67;;;5.00;99.90;;;;;;5082568;28;20524;-59
2022/03/19 00:54:32;;;;;;;12.83;11.20;;;5.10;99.90;;;;;;5081543;28;20472;-58
2022/03/19 00:56:59;;;;;;;16.30;11.80;;;5.00;99.90;;;;;;5081988;28;20903;-59
2022/03/19 00:59:29;;;;;;;14.33;11.57;;;4.90;99.90;;;;;;5081793;28;20497;-57
2022/03/19 01:01:57;;;;;;;14.80;11.70;;;5.00;99.90;;;;;;5100388;28;20460;-58
2022/03/19 01:04:29;;;;;;;18.00;12.90;;;5.00;99.90;;;;;;5099387;28;20819;-56
2022/03/19 01:07:05;;;;;;;20.90;10.50;;;4.90;99.90;;;;;;5100022;28;20545;-59
2022/03/19 01:09:40;;;;;;;16.00;11.90;;;4.80;99.90;;;;;;5101188;28;20979;-59
2022/03/19 01:12:24;;;;;;;13.33;11.00;;;4.80;99.90;;;;;;5099169;28;20455;-59
2022/03/19 01:14:51;;;;;;;20.57;11.60;;;4.70;99.90;;;;;;5096072;28;20463;-57
2022/03/19 01:17:18;;;;;;;16.57;11.20;;;4.70;99.90;;;;;;5097616;28;20600;-57
2022/03/19 01:20:02;;;;;;;17.43;11.80;;;4.60;99.90;;;;;;5097222;28;20460;-57
2022/03/19 01:22:30;;;;;;;16.73;11.37;;;4.60;99.90;;;;;;5093912;28;20467;-59
2022/03/19 01:24:59;;;;;;;13.00;10.70;;;4.60;99.90;;;;;;5099360;28;20498;-56
2022/03/19 01:27:26;;;;;;;14.97;11.20;;;4.50;99.90;;;;;;5100165;28;20463;-59
2022/03/19 01:30:08;;;;;;;14.43;11.40;;;4.50;99.90;;;;;;5099914;28;20472;-58
2022/03/19 01:32:35;;;;;;;13.43;11.33;;;4.50;99.90;;;;;;5085907;28;20486;-59
2022/03/19 01:35:04;;;;;;;14.27;10.60;;;4.40;99.90;;;;;;5099916;28;20550;-59
2022/03/19 01:37:31;;;;;;;17.50;12.20;;;4.40;99.90;;;;;;5098100;28;20460;-57
2022/03/19 01:40:00;;;;;;;14.70;11.97;;;4.40;99.90;;;;;;5085045;28;20464;-59
2022/03/19 01:42:30;;;;;;;18.43;13.10;;;4.30;99.90;;;;;;5098049;28;21911;-59
2022/03/19 01:45:02;;;;;;;18.60;12.00;;;4.20;99.90;;;;;;5099396;28;20467;-57
2022/03/19 01:47:33;;;;;;;15.57;12.10;;;4.20;99.90;;;;;;5098431;28;20464;-56
2022/03/19 01:50:05;;;;;;;14.80;12.67;;;4.30;1.00;;;;;;5099644;28;20889;-59
2022/03/19 01:52:37;;;;;;;15.13;11.27;;;4.30;99.90;;;;;;5094456;28;20468;-57
2022/03/19 01:55:06;;;;;;;15.60;11.23;;;4.20;99.90;;;;;;5096511;28;20459;-59
2022/03/19 01:57:38;;;;;;;17.60;11.87;;;4.20;99.90;;;;;;5095144;28;20457;-59
2022/03/19 02:00:10;;;;;;;13.40;12.00;;;4.10;1.00;;;;;;5098123;28;20558;-59
2022/03/19 02:02:39;;;;;;;15.97;12.07;;;4.00;1.00;;;;;;5097999;28;20476;-59
2022/03/19 02:05:15;;;;;;;12.70;10.67;;;4.00;1.00;;;;;;5055151;28;1227423;-57
2022/03/19 02:07:51;;;;;;;12.10;10.80;;;4.00;49.40;;;;;;5097690;28;20464;-59
2022/03/19 02:10:22;;;;;;;13.87;10.70;;;4.00;99.90;;;;;;5099397;28;20465;-59
2022/03/19 02:12:52;;;;;;;18.30;11.20;;;4.00;99.90;;;;;;5098638;28;20456;-59
2022/03/19 02:15:24;;;;;;;14.67;10.27;;;4.00;99.10;;;;;;5091859;28;20553;-59
2022/03/19 02:17:51;;;;;;;17.47;11.53;;;3.90;98.00;;;;;;5095237;28;20798;-59
2022/03/19 02:20:27;;;;;;;13.37;10.87;;;4.00;99.90;;;;;;5089834;28;20889;-59
2022/03/19 02:25:48;;;;;;;14.10;11.00;;;3.90;44.00;;;;;;5089845;28;20485;-59
2022/03/19 02:28:16;;;;;;;15.10;10.80;;;3.90;1.00;;;;;;5088230;28;20449;-59
2022/03/19 02:30:49;;;;;;;13.83;10.70;;;3.90;1.00;;;;;;5092380;28;20547;-59
2022/03/19 02:33:16;;;;;;;17.23;10.50;;;3.90;16.40;;;;;;5091985;28;20453;-59
2022/03/19 02:35:47;;;;;;;14.80;11.60;;;3.80;3.00;;;;;;5086589;28;20973;-59
2022/03/19 02:38:17;;;;;;;15.97;11.80;;;3.90;99.90;;;;;;5090239;28;20516;-59
2022/03/19 02:40:56;;;;;;;17.63;11.03;;;3.90;99.90;;;;;;5089543;28;20539;-59
2022/03/19 02:43:25;;;;;;;13.30;11.40;;;3.80;99.90;;;;;;5088140;28;20458;-56
2022/03/19 02:46:00;;;;;;;25.10;12.00;;;3.80;99.90;;;;;;5090242;28;20457;-59
2022/03/19 02:48:29;;;;;;;15.67;11.00;;;3.80;99.90;;;;;;5088905;28;20461;-58
2022/03/19 02:50:59;;;;;;;15.90;11.00;;;3.80;99.90;;;;;;5092312;28;20457;-59
2022/03/19 02:53:30;;;;;;;16.07;11.27;;;3.80;99.90;;;;;;5090941;28;20457;-57
2022/03/19 02:56:00;;;;;;;16.20;11.20;;;3.70;25.60;;;;;;5088168;28;20468;-53
2022/03/19 02:58:29;;;;;;;14.53;11.43;;;3.70;1.00;;;;;;5089922;28;20491;-58
2022/03/19 03:00:59;;;;;;;17.40;11.80;;;3.60;1.00;;;;;;5090778;28;20460;-59
2022/03/19 03:03:26;;;;;;;15.50;12.00;;;3.40;1.00;;;;;;5091743;28;20457;-54
2022/03/19 03:05:53;;;;;;;18.33;11.90;;;3.40;1.00;;;;;;5092051;28;20533;-59
2022/03/19 03:08:23;;;;;;;15.73;12.17;;;3.20;99.90;;;;;;5088978;28;21162;-56
2022/03/19 03:10:52;;;;;;;13.50;12.03;;;3.20;99.90;;;;;;5089579;28;20575;-58
2022/03/19 03:13:21;;;;;;;17.83;12.57;;;3.10;99.90;;;;;;5088458;28;20496;-59
2022/03/19 03:15:48;;;;;;;14.27;12.03;;;3.00;99.90;;;;;;5087488;28;20514;-59
2022/03/19 03:18:17;;;;;;;13.43;11.40;;;2.90;1.00;;;;;;5088481;28;20984;-58
2022/03/19 03:20:47;;;;;;;16.43;12.53;;;2.80;1.00;;;;;;5089925;28;20452;-56
2022/03/19 03:23:19;;;;;;;20.30;12.40;;;2.80;1.00;;;;;;5092468;28;20521;-58
2022/03/19 03:25:46;;;;;;;17.20;12.50;;;2.80;1.00;;;;;;5088825;28;20463;-59
2022/03/19 03:28:17;;;;;;;18.93;12.87;;;2.70;1.00;;;;;;5089210;28;20445;-57
2022/03/19 03:30:47;;;;;;;17.37;12.83;;;2.70;99.90;;;;;;5089083;28;20454;-59
2022/03/19 03:33:22;;;;;;;22.37;12.30;;;2.70;99.90;;;;;;5090981;28;20456;-59
2022/03/19 03:35:59;;;;;;;20.30;12.57;;;2.70;1.00;;;;;;5089033;28;20459;-59
2022/03/19 03:38:29;;;;;;;17.33;11.10;;;2.70;1.00;;;;;;5088204;28;20868;-57
2022/03/19 03:40:58;;;;;;;19.63;12.00;;;2.80;99.90;;;;;;5086744;28;20465;-59
2022/03/19 03:43:29;;;;;;;15.70;12.30;;;2.80;99.90;;;;;;5086429;28;20770;-58
2022/03/19 03:45:59;;;;;;;16.80;11.93;;;2.90;1.00;;;;;;5085474;28;20889;-59
2022/03/19 03:48:26;;;;;;;19.70;12.03;;;2.90;1.00;;;;;;5086876;28;20460;-54
2022/03/19 03:50:57;;;;;;;15.27;12.20;;;3.00;99.90;;;;;;5086599;28;20551;-53
2022/03/19 03:53:26;;;;;;;17.50;13.07;;;2.90;1.00;;;;;;5088492;28;20462;-56
2022/03/19 03:55:56;;;;;;;15.83;12.23;;;2.70;82.10;;;;;;5086789;28;20464;-58
2022/03/19 03:58:27;;;;;;;13.90;12.50;;;2.60;1.00;;;;;;5087194;28;20493;-54
2022/03/19 04:00:55;;;;;;;14.37;11.00;;;2.60;1.00;;;;;;5085970;28;20543;-58
2022/03/19 04:03:22;;;;;;;16.40;12.33;;;2.60;1.00;;;;;;5084589;28;20457;-54
2022/03/19 04:05:53;;;;;;;17.30;11.53;;;2.50;99.90;;;;;;5085234;28;20952;-59
2022/03/19 04:08:21;;;;;;;21.90;12.70;;;2.40;99.90;;;;;;5084640;28;20461;-52
2022/03/19 04:10:49;;;;;;;17.70;11.80;;;2.60;1.00;;;;;;5088578;28;20952;-59
2022/03/19 04:13:20;;;;;;;14.33;11.50;;;2.70;42.30;;;;;;5087841;28;20518;-56
2022/03/19 04:15:51;;;;;;;20.77;12.30;;;2.70;1.00;;;;;;5086287;28;20466;-57
2022/03/19 04:18:18;;;;;;;15.13;12.20;;;2.80;1.00;;;;;;5086580;28;20511;-56
2022/03/19 04:20:52;;;;;;;17.47;11.90;;;2.80;99.90;;;;;;5092216;28;20469;-58
2022/03/19 04:23:21;;;;;;;14.50;11.60;;;2.90;1.00;;;;;;5089952;28;20469;-56
2022/03/19 04:25:48;;;;;;;15.93;12.40;;;2.90;22.30;;;;;;5090273;28;20904;-59
2022/03/19 04:28:15;;;;;;;13.73;11.30;;;2.90;1.00;;;;;;5085710;28;20471;-58
2022/03/19 04:30:45;;;;;;;14.60;11.30;;;2.90;1.00;;;;;;5091211;28;20473;-59
2022/03/19 04:33:21;;;;;;;20.60;11.53;;;3.00;1.00;;;;;;5093211;28;20460;-55
2022/03/19 04:38:44;;;;;;;14.90;11.13;;;2.90;1.00;;;;;;5083780;28;20475;-56
2022/03/19 04:41:12;;;;;;;14.90;11.03;;;2.90;99.90;;;;;;5087513;28;20453;-55
2022/03/19 04:43:40;;;;;;;15.33;12.43;;;2.80;99.90;;;;;;5083217;28;20515;-53
2022/03/19 04:46:07;;;;;;;15.60;11.07;;;2.90;99.90;;;;;;5083315;28;20814;-56
2022/03/19 04:48:35;;;;;;;20.83;13.60;;;2.80;1.00;;;;;;5085096;28;20458;-58
2022/03/19 04:51:11;;;;;;;14.87;11.07;;;2.80;1.00;;;;;;5087485;28;20457;-52
2022/03/19 04:53:40;;;;;;;14.90;11.90;;;2.80;1.00;;;;;;5086298;28;20453;-59
2022/03/19 04:56:20;;;;;;;17.53;12.50;;;2.80;1.00;;;;;;5083326;28;20465;-56
2022/03/19 04:58:48;;;;;;;21.07;11.80;;;2.80;1.00;;;;;;5085909;28;20496;-56
2022/03/19 05:01:16;;;;;;;19.20;12.63;;;2.80;1.00;;;;;;5092721;28;20468;-55
2022/03/19 05:03:46;;;;;;;17.10;12.57;;;2.70;1.00;;;;;;5096068;28;20460;-58
2022/03/19 05:06:14;;;;;;;15.33;12.00;;;2.70;99.90;;;;;;5094859;28;20778;-56
2022/03/19 05:08:41;;;;;;;13.27;11.20;;;2.70;99.90;;;;;;5095103;28;20460;-59
2022/03/19 05:11:17;;;;;;;15.93;11.80;;;2.70;1.00;;;;;;5083868;28;20879;-59
2022/03/19 05:13:47;;;;;;;18.47;12.40;;;2.70;99.90;;;;;;5100212;28;20466;-57
2022/03/19 05:16:15;;;;;;;18.07;11.07;;;2.80;99.90;;;;;;5096706;28;20523;-59
2022/03/19 05:18:45;;;;;;;16.27;13.87;;;2.80;99.90;;;;;;5095854;28;20824;-58
2022/03/19 05:21:17;;;;;;;20.33;11.60;;;2.80;99.90;;;;;;5099717;28;20468;-59
2022/03/19 05:23:47;;;;;;;14.73;11.60;;;2.80;99.90;;;;;;5095095;28;20476;-56
2022/03/19 05:26:17;;;;;;;17.30;12.23;;;2.70;90.20;;;;;;5091388;28;20452;-59
2022/03/19 05:28:46;;;;;;;18.10;11.70;;;2.60;60.50;;;;;;5090250;28;20486;-58
2022/03/19 05:31:17;;;;;;;14.90;12.57;;;2.70;1.00;;;;;;5098625;28;20454;-55
2022/03/19 05:36:32;;;;;;;17.17;11.67;;;2.80;19.10;;;;;;5095281;28;20890;-54
2022/03/19 05:39:03;;;;;;;18.50;12.07;;;2.80;99.90;;;;;;5094967;28;20541;-58
2022/03/19 05:41:33;;;;;;;19.23;12.90;;;2.80;1.00;;;;;;5098513;28;20467;-56
2022/03/19 05:44:03;;;;;;;18.77;14.07;;;2.90;99.90;;;;;;5097097;28;20471;-53
2022/03/19 05:46:32;;;;;;;15.67;12.30;;;2.80;1.00;;;;;;5095061;28;20897;-54
2022/03/19 05:48:59;;;;;;;18.63;12.47;;;2.80;99.90;;;;;;5087743;28;20461;-56
2022/03/19 05:51:29;;;;;;;19.60;12.40;;;2.80;38.70;;;;;;5082879;28;20473;-55
2022/03/19 05:54:00;;;;;;;14.33;12.37;;;2.80;16.30;;;;;;5098497;28;20471;-54
2022/03/19 05:56:32;;;;;;;18.20;14.40;;;2.80;16.50;;;;;;5098137;28;20469;-55
2022/03/19 05:59:01;;;;;;;14.80;11.07;;;2.80;1.00;;;;;;5096854;28;20489;-57
2022/03/19 06:01:28;;;;;;;14.80;11.10;;;2.80;1.00;;;;;;5094942;28;20461;-57
2022/03/19 06:03:58;;;;;;;19.83;13.10;;;2.80;14.50;;;;;;5096408;28;20469;-54
2022/03/19 06:06:29;;;;;;;18.57;11.70;;;2.90;1.00;;;;;;5094701;28;20569;-59
2022/03/19 06:09:03;;;;;;;15.83;12.10;;;2.90;1.00;;;;;;5094191;28;20529;-57
2022/03/19 06:11:30;;;;;;;17.40;13.13;;;2.90;1.00;;;;;;5096215;28;20461;-58
2022/03/19 06:14:04;;;;;;;18.03;12.87;;;2.90;99.90;;;;;;5097390;28;20909;-56
2022/03/19 06:16:34;;;;;;;17.97;13.13;;;3.00;99.90;;;;;;5098143;28;20466;-59
2022/03/19 06:19:01;;;;;;;16.27;11.20;;;3.10;99.90;;;;;;5086485;28;20902;-58
2022/03/19 06:21:31;;;;;;;15.87;12.30;;;3.20;99.90;;;;;;5097919;28;20930;-57
2022/03/19 06:23:59;;;;;;;17.27;11.60;;;3.30;31.90;;;;;;5089743;28;20473;-57
2022/03/19 06:26:29;;;;;;;14.60;12.50;;;3.40;1.00;;;;;;5094885;28;20474;-59
2022/03/19 06:29:01;;;;;;;15.50;10.93;;;3.50;99.90;;;;;;5092684;28;20465;-54
2022/03/19 06:31:31;;;;;;;16.40;12.87;;;3.60;33.40;;;;;;5082527;28;20465;-56
2022/03/19 06:33:58;;;;;;;13.50;11.87;;;3.80;1.00;;;;;;5086184;28;20460;-61
2022/03/19 06:39:12;;;;;;;19.60;10.73;;;4.10;1.00;;;;;;5095708;28;20542;-61
2022/03/19 06:41:41;;;;;;;15.90;10.70;;;4.30;99.90;;;;;;5090105;28;20522;-60
2022/03/19 06:44:08;;;;;;;12.80;10.40;;;4.50;1.00;;;;;;5097408;28;20947;-61
2022/03/19 06:46:36;;;;;;;15.00;10.33;;;4.60;53.20;;;;;;5093427;28;20457;-61
2022/03/19 06:49:03;;;;;;;14.00;10.20;;;4.80;1.00;;;;;;5095423;28;20814;-61
2022/03/19 06:51:36;;;;;;;12.60;10.03;;;5.00;1.00;;;;;;5088166;28;20456;-61
2022/03/19 06:54:04;;;;;;;11.40;10.10;;;5.10;99.90;;;;;;5097201;28;20464;-61
2022/03/19 06:56:37;;;;;;;13.63;9.80;;;5.40;99.90;;;;;;5096606;28;20464;-60
2022/03/19 06:59:04;;;;;;;14.50;10.40;;;5.60;99.90;;;;;;5093363;28;20507;-60
2022/03/19 07:01:36;;;;;;;11.77;8.73;;;5.90;99.90;;;;;;5091127;28;20496;-60
2022/03/19 07:04:04;;;;;;;16.93;10.20;;;6.00;40.60;;;;;;5092194;28;20471;-59
2022/03/19 07:06:37;;;;;;;12.77;9.00;;;6.20;1.00;;;;;;5096209;28;20999;-59
2022/03/19 07:09:13;;;;;;;11.17;8.97;;;6.30;1.00;;;;;;5092471;28;20495;-60
2022/03/19 07:11:42;;;;;;;13.60;10.50;;;6.50;1.00;;;;;;5094030;28;20475;-61
2022/03/19 07:14:10;;;;;;;11.40;9.20;;;6.70;1.00;;;;;;5097563;28;20900;-61
2022/03/19 07:16:38;;;;;;;14.47;10.77;;;7.00;1.00;;;;;;5092136;28;20962;-60
2022/03/19 07:19:12;;;;;;;11.97;8.90;;;7.20;1.00;;;;;;5093893;28;20468;-61
2022/03/19 07:21:39;;;;;;;9.57;8.33;;;7.20;1.00;;;;;;5092722;28;20467;-55
2022/03/19 07:24:07;;;;;;;11.70;8.57;;;7.20;1.00;;;;;;5092704;28;20553;-60
2022/03/19 07:26:34;;;;;;;13.20;9.50;;;7.30;1.00;;;;;;5094156;28;20513;-59
2022/03/19 07:29:03;;;;;;;11.37;8.60;;;7.40;1.00;;;;;;5094605;28;20464;-59
2022/03/19 07:31:42;;;;;;;13.60;9.67;;;7.50;1.00;;;;;;5095051;28;20810;-60
2022/03/19 07:34:12;;;;;;;12.43;8.20;;;7.70;1.00;;;;;;5097246;28;20920;-61
2022/03/19 07:36:39;;;;;;;10.97;9.20;;;7.80;1.00;;;;;;5096798;28;20509;-61
2022/03/19 07:39:09;;;;;;;14.67;9.50;;;7.90;1.00;;;;;;5095697;28;20550;-61
2022/03/19 07:41:50;;;;;;;11.07;9.57;;;8.10;1.00;;;;;;5095780;28;20456;-60
2022/03/19 07:44:19;;;;;;;12.60;8.10;;;8.00;1.00;;;;;;5097122;28;20455;-60
2022/03/19 07:46:46;;;;;;;11.07;8.40;;;7.90;99.90;;;;;;5096102;28;20480;-60
2022/03/19 07:49:13;;;;;;;12.13;10.00;;;7.90;99.90;;;;;;5097606;28;20457;-57
2022/03/19 07:51:43;;;;;;;15.23;9.10;;;8.30;1.00;;;;;;5093072;28;20453;-59
2022/03/19 07:54:18;;;;;;;10.17;8.53;;;8.60;99.90;;;;;;5091787;28;20479;-58
2022/03/19 07:56:51;;;;;;;15.70;9.77;;;8.80;99.90;;;;;;5095728;28;20486;-61
2022/03/19 07:59:21;;;;;;;13.77;9.17;;;9.00;99.90;;;;;;5094951;28;20464;-60
2022/03/19 08:01:53;;;;;;;10.93;8.77;;;9.20;99.90;;;;;;5096921;28;20464;-61
2022/03/19 08:04:20;;;;;;;10.07;8.43;;;9.30;99.90;;;;;;5095625;28;20457;-61
2022/03/19 08:06:49;;;;;;;11.20;9.10;;;9.60;99.90;;;;;;5097378;28;20485;-61
2022/03/19 08:09:17;;;;;;;11.63;8.80;;;9.70;99.90;;;;;;5079171;28;20959;-61
2022/03/19 08:11:44;;;;;;;10.60;8.17;;;9.70;99.90;;;;;;5083572;28;20461;-58
2022/03/19 08:14:15;;;;;;;14.57;8.10;;;10.00;99.90;;;;;;5081052;28;20465;-61
2022/03/19 08:16:49;;;;;;;12.03;8.97;;;10.10;99.90;;;;;;5086466;28;20547;-58
2022/03/19 08:19:19;;;;;;;12.03;9.57;;;10.30;99.90;;;;;;5086028;28;20505;-59
2022/03/19 08:21:52;;;;;;;11.10;8.43;;;10.50;99.90;;;;;;5095958;28;20491;-59
2022/03/19 08:24:28;;;;;;;8.87;7.30;;;10.60;99.90;;;;;;5092022;28;20510;-59
2022/03/19 08:26:55;;;;;;;11.00;8.93;;;10.60;99.90;;;;;;5093524;28;20499;-59
2022/03/19 08:29:25;;;;;;;11.50;7.90;;;10.80;99.90;;;;;;5095590;28;20464;-59
2022/03/19 08:31:53;;;;;;;9.13;8.10;;;11.00;99.90;;;;;;5096935;28;20472;-59
2022/03/19 08:34:23;;;;;;;15.97;9.40;;;11.00;99.90;;;;;;5095345;28;20458;-58
2022/03/19 08:36:52;;;;;;;10.47;8.90;;;11.20;99.90;;;;;;5087312;28;20548;-59
2022/03/19 08:42:07;;;;;;;8.37;7.50;;;11.20;99.90;;;;;;5097399;28;20594;-59
2022/03/19 08:44:36;;;;;;;9.27;7.40;;;11.60;99.90;;;;;;5097260;28;20453;-58
2022/03/19 08:47:05;;;;;;;9.50;7.83;;;11.80;99.90;;;;;;5096633;28;20452;-58
2022/03/19 08:49:32;;;;;;;11.07;7.67;;;12.00;99.90;;;;;;5098098;28;20456;-57
2022/03/19 08:52:05;;;;;;;11.23;7.00;;;11.90;99.90;;;;;;5100863;28;20452;-58
2022/03/19 08:54:32;;;;;;;14.43;8.43;;;12.10;99.90;;;;;;5094617;28;20460;-58
2022/03/19 08:57:01;;;;;;;10.83;8.20;;;12.30;99.90;;;;;;5096690;28;20460;-58
2022/03/19 08:59:31;;;;;;;12.00;8.47;;;12.20;99.90;;;;;;5099190;28;20455;-55
2022/03/19 09:01:59;;;;;;;9.50;7.63;;;12.20;99.90;;;;;;5096087;28;20753;-58
2022/03/19 09:04:29;;;;;;;14.43;7.10;;;12.60;99.90;;;;;;5100079;28;20910;-58
2022/03/19 09:06:59;;;;;;;14.70;8.60;;;12.80;99.90;;;;;;5094992;28;20519;-58
2022/03/19 09:09:32;;;;;;;10.10;6.90;;;13.10;99.90;;;;;;5091689;28;20885;-56
2022/03/19 09:11:59;;;;;;;11.87;6.83;;;12.80;99.90;;;;;;5090418;28;20893;-56
2022/03/19 09:14:27;;;;;;;9.30;6.90;;;13.40;99.90;;;;;;5094358;28;20464;-55
2022/03/19 09:16:54;;;;;;;10.40;7.63;;;13.60;99.90;;;;;;5092618;28;20464;-58
2022/03/19 09:19:22;;;;;;;9.90;6.77;;;13.90;99.90;;;;;;5100246;28;20460;-59
2022/03/19 09:21:51;;;;;;;8.80;7.30;;;13.80;99.90;;;;;;5098072;28;20962;-58
2022/03/19 09:24:21;;;;;;;9.13;6.40;;;13.70;99.90;;;;;;5099472;28;20475;-58
2022/03/19 09:26:48;;;;;;;9.00;6.87;;;13.80;99.90;;;;;;5093560;28;20456;-58
2022/03/19 09:29:18;;;;;;;11.97;6.57;;;13.80;99.90;;;;;;5091915;28;20542;-58
2022/03/19 09:31:45;;;;;;;6.80;6.20;;;14.00;99.90;;;;;;5097527;28;20452;-57
2022/03/19 09:34:16;;;;;;;9.83;7.17;;;14.10;99.90;;;;;;5090575;28;20449;-58
2022/03/19 09:36:46;;;;;;;8.20;6.60;;;14.00;99.90;;;;;;5081348;28;20449;-58
2022/03/19 09:39:19;;;;;;;7.77;6.60;;;13.80;99.90;;;;;;5077110;28;20462;-58
2022/03/19 09:42:05;;;;;;;10.67;7.50;;;14.00;99.90;;;;;;5079061;28;20618;-58
2022/03/19 09:44:32;;;;;;;10.93;7.43;;;13.70;99.90;;;;;;5079753;28;20471;-58
2022/03/19 09:47:01;;;;;;;11.10;6.80;;;14.00;99.90;;;;;;5079139;28;20882;-59
2022/03/19 09:49:31;;;;;;;11.50;7.00;;;13.90;99.90;;;;;;5079283;28;20801;-57
2022/03/19 09:52:04;;;;;;;9.77;6.53;;;13.90;99.90;;;;;;5084353;28;20445;-58
2022/03/19 09:54:35;;;;;;;9.40;6.70;;;13.90;99.90;;;;;;5100362;28;20465;-59
2022/03/19 09:57:14;;;;;;;7.83;6.67;;;14.40;99.90;;;;;;5100126;28;20460;-58
2022/03/19 09:59:47;;;;;;;8.03;7.10;;;14.40;99.90;;;;;;5099208;28;20460;-58
2022/03/19 10:02:15;;;;;;;9.33;7.40;;;14.80;99.90;;;;;;5100009;28;20528;-59
2022/03/19 10:04:45;;;;;;;8.53;6.73;;;14.70;99.90;;;;;;5099731;28;20852;-57
2022/03/19 10:10:11;;;;;;;7.40;5.80;;;14.80;99.90;;;;;;5099854;28;20431;-59
2022/03/19 10:12:48;;;;;;;9.30;6.40;;;14.10;99.90;;;;;;5099257;28;20900;-58
2022/03/19 10:15:15;;;;;;;8.90;6.33;;;14.50;99.90;;;;;;5099241;28;20467;-57
2022/03/19 10:17:42;;;;;;;10.37;7.43;;;14.40;99.90;;;;;;5099915;28;20510;-57
2022/03/19 10:20:13;;;;;;;7.70;6.37;;;14.50;99.90;;;;;;5098738;28;20510;-59
2022/03/19 10:22:47;;;;;;;7.87;6.67;;;14.70;99.90;;;;;;5098837;28;20467;-59
2022/03/19 10:25:19;;;;;;;8.60;6.73;;;14.70;99.90;;;;;;5093862;28;20555;-57
2022/03/19 10:27:55;;;;;;;8.43;7.27;;;14.80;99.90;;;;;;5094418;28;20915;-56
2022/03/19 10:30:35;;;;;;;8.90;6.73;;;14.70;99.90;;;;;;5098257;28;20806;-56
2022/03/19 10:33:03;;;;;;;11.10;7.30;;;14.40;99.90;;;;;;5091419;28;20525;-57
2022/03/19 10:35:41;;;;;;;9.73;6.27;;;14.90;99.90;;;;;;5085543;28;20460;-57
2022/03/19 10:38:22;;;;;;;8.97;6.00;;;14.70;99.90;;;;;;5077885;28;20492;-57
2022/03/19 10:40:52;;;;;;;9.27;6.53;;;15.20;99.90;;;;;;5081114;28;20484;-57
2022/03/19 10:43:22;;;;;;;6.47;5.70;;;15.60;99.90;;;;;;5075858;28;20469;-59
2022/03/19 10:45:50;;;;;;;10.13;6.47;;;15.70;99.90;;;;;;5077579;28;20501;-60
2022/03/19 10:48:20;;;;;;;7.83;5.60;;;15.10;99.90;;;;;;5077927;28;20515;-59
2022/03/19 10:50:52;;;;;;;7.37;5.60;;;15.20;99.90;;;;;;5078517;28;20461;-58
2022/03/19 10:53:25;;;;;;;8.13;5.70;;;15.30;99.90;;;;;;5094906;28;20784;-60
2022/03/19 10:56:02;;;;;;;10.17;6.80;;;14.90;99.90;;;;;;5097937;28;20460;-58
2022/03/19 10:58:29;;;;;;;8.80;6.30;;;14.70;99.90;;;;;;5088491;28;20505;-59
2022/03/19 11:01:00;;;;;;;7.70;6.13;;;15.00;99.90;;;;;;5087515;28;20489;-59
2022/03/19 11:03:30;;;;;;;9.80;6.23;;;15.00;99.90;;;;;;5086351;28;20503;-60
2022/03/19 11:06:03;;;;;;;6.60;5.40;;;14.80;99.90;;;;;;5089172;28;20571;-59
2022/03/19 11:08:31;;;;;;;10.40;5.67;;;15.00;99.90;;;;;;5086988;28;20454;-59
2022/03/19 11:11:03;;;;;;;7.60;5.70;;;15.00;99.90;;;;;;5086380;28;20478;-59
2022/03/19 11:13:40;;;;;;;8.10;5.77;;;15.40;99.90;;;;;;5086959;28;20529;-60
2022/03/19 11:16:08;;;;;;;6.10;5.50;;;15.20;99.90;;;;;;5088466;28;20475;-60
2022/03/19 11:18:39;;;;;;;8.43;5.10;;;15.10;99.90;;;;;;5085128;28;20474;-60
2022/03/19 11:21:10;;;;;;;6.93;5.33;;;15.30;99.90;;;;;;5084807;28;20518;-60
2022/03/19 11:23:49;;;;;;;6.17;4.67;;;15.40;99.90;;;;;;5086411;28;20461;-60
2022/03/19 11:26:25;;;;;;;9.47;4.37;;;15.00;99.90;;;;;;5089900;28;20465;-60
2022/03/19 11:28:54;;;;;;;6.33;4.50;;;15.10;99.90;;;;;;5092003;28;20452;-60
2022/03/19 11:31:28;;;;;;;6.13;4.73;;;15.20;99.90;;;;;;5090532;28;20456;-59
2022/03/19 11:34:05;;;;;;;6.43;4.10;;;15.20;99.90;;;;;;5088296;28;20539;-59
2022/03/19 11:37:00;;;;;;;5.90;4.13;;;15.80;99.90;;;;;;5085901;28;20444;-59
2022/03/19 11:39:28;;;;;;;7.10;4.23;;;15.70;99.90;;;;;;5090434;28;20556;-59
2022/03/19 11:41:59;;;;;;;7.40;4.10;;;15.20;99.90;;;;;;5085650;28;20485;-60
2022/03/19 11:44:34;;;;;;;4.27;3.20;;;15.70;99.90;;;;;;5090543;28;20479;-60
2022/03/19 11:47:03;;;;;;;4.27;3.23;;;15.60;99.90;;;;;;5086068;28;20456;-60
2022/03/19 11:49:53;;;;;;;6.10;4.20;;;15.80;99.90;;;;;;5088030;28;20464;-60
2022/03/19 11:53:03;;;;;;;4.77;3.60;;;15.90;99.90;;;;;;5087478;28;20537;-59
2022/03/19 11:55:38;;;;;;;5.73;3.80;;;16.00;99.90;;;;;;5085028;28;20460;-60
2022/03/19 11:58:15;;;;;;;6.70;3.13;;;15.60;99.90;;;;;;5085984;28;20455;-60
2022/03/19 12:00:45;;;;;;;4.07;3.53;;;15.40;99.90;;;;;;5087281;28;20444;-60
2022/03/19 12:03:15;;;;;;;5.73;3.70;;;15.20;99.90;;;;;;5090110;28;20453;-61
2022/03/19 12:05:48;;;;;;;5.20;3.63;;;15.50;99.90;;;;;;5086376;28;20493;-61
2022/03/19 12:08:21;;;;;;;4.80;3.87;;;15.50;99.90;;;;;;5077085;28;20885;-61
2022/03/19 12:11:01;;;;;;;4.20;2.97;;;15.20;99.90;;;;;;5077933;28;20925;-60
2022/03/19 12:13:50;;;;;;;4.07;3.53;;;15.70;99.90;;;;;;5076937;28;20461;-59
2022/03/19 12:16:45;;;;;;;3.50;3.20;;;15.50;99.90;;;;;;5087786;28;20498;-60
2022/03/19 12:19:54;;;;;;;5.07;2.70;;;15.30;99.90;;;;;;5082303;28;20472;-60
2022/03/19 12:22:32;;;;;;;7.50;3.53;;;15.70;99.90;;;;;;5080502;28;20489;-59
2022/03/19 12:25:12;;;;;;;4.43;3.00;;;16.10;99.90;;;;;;5080841;28;20890;-60
2022/03/19 12:27:45;;;;;;;4.43;2.87;;;15.70;99.90;;;;;;5098358;28;20809;-60
2022/03/19 12:30:16;;;;;;;3.70;2.87;;;15.50;99.90;;;;;;5097073;28;20452;-60
2022/03/19 12:32:55;;;;;;;3.70;2.97;;;15.20;99.90;;;;;;5088368;28;20452;-60
2022/03/19 12:35:30;;;;;;;3.87;2.90;;;15.30;99.90;;;;;;5099181;28;20460;-60
2022/03/19 12:38:00;;;;;;;4.63;3.93;;;15.60;99.90;;;;;;5085952;28;20457;-60
2022/03/19 12:43:41;;;;;;;3.53;3.00;;;15.10;99.90;;;;;;5099614;28;20444;-60
2022/03/19 12:46:09;;;;;;;4.10;2.80;;;14.80;99.90;;;;;;5097081;28;20902;-61
2022/03/19 12:48:39;;;;;;;4.63;2.70;;;15.20;99.90;;;;;;5100513;28;20478;-60
2022/03/19 12:51:10;;;;;;;3.70;2.80;;;14.80;99.90;;;;;;5100503;28;20459;-61
2022/03/19 12:53:40;;;;;;;5.10;2.80;;;14.90;99.90;;;;;;5093056;28;20463;-58
2022/03/19 12:56:18;;;;;;;3.87;2.53;;;15.00;99.90;;;;;;5087286;28;20487;-58
2022/03/19 12:58:47;;;;;;;5.70;2.97;;;15.20;99.90;;;;;;5095574;28;20471;-58
2022/03/19 13:01:19;;;;;;;3.00;2.63;;;15.00;99.90;;;;;;5100909;28;20495;-56
2022/03/19 13:03:51;;;;;;;4.50;3.40;;;14.90;99.90;;;;;;5098863;28;20464;-56
2022/03/19 13:06:28;;;;;;;3.57;2.73;;;14.80;99.90;;;;;;5100549;28;20492;-58
2022/03/19 13:08:56;;;;;;;3.87;3.03;;;14.80;99.90;;;;;;5098470;28;20468;-60
2022/03/19 13:11:23;;;;;;;3.40;2.40;;;15.10;99.90;;;;;;5099234;28;20463;-59
2022/03/19 13:13:57;;;;;;;3.00;2.70;;;15.60;99.90;;;;;;5086157;28;20510;-60
2022/03/19 13:16:37;;;;;;;5.30;2.73;;;16.10;99.90;;;;;;5092282;28;20452;-60
2022/03/19 13:19:06;;;;;;;6.97;2.97;;;16.10;99.90;;;;;;5079161;28;20461;-60
2022/03/19 13:21:41;;;;;;;7.50;3.23;;;16.30;99.90;;;;;;5079973;28;20968;-60
2022/03/19 13:24:11;;;;;;;3.23;2.80;;;15.40;99.90;;;;;;5077470;28;20464;-60